Tuesday, June 19, 2018, 12:57 AM EDT
Back to Local

KCQX, Chatham Municipal Airport

Location: Chatham, MA, United States Lat: 41.683
Local Time: 12:57 AM EDT ( 4:57 GMT) Lon: -70
Time Zone: US/Eastern Elev: 68 ft

Show me the last for .
Show Decoded

2018-06-19 00:33 METAR KCQX 190433Z AUTO 24014G27KT 9SM -RA OVC004 19/18 A2971 RMK AO2 PK WND
                 24027/0433 RAE0356B28 P0001 T01890183 TSNO =
2018-06-19 00:12 METAR KCQX 190412Z AUTO 23009G20KT 210V280 8SM BKN005 19/18 A2972 RMK AO2
                 RAE0356 P0000 T01890183 TSNO =
2018-06-19 00:05 METAR KCQX 190405Z AUTO 22010G20KT 8SM SCT005 BKN120 19/18 A2972 RMK AO2 RAE0356
                 P0000 T01890183 TSNO =
2018-06-18 23:52 METAR KCQX 190352Z AUTO 22011G19KT 9SM -RA BKN006 BKN120 19/18 A2973 RMK AO2 PK
                 WND 23028/0339 SLP068 P0002 T01940183 TSNO =
2018-06-18 23:38 METAR KCQX 190338Z AUTO 23011G20KT 8SM -RA SCT004 19/18 A2975 RMK AO2 PK WND
                 23027/0253 P0002 T01890183 TSNO =
2018-06-18 22:59 METAR KCQX 190259Z AUTO 23010G27KT 4SM -RA BR OVC002 19/18 A2980 RMK AO2 PK WND
                 23027/0253 P0000 T01890183 TSNO =
2018-06-18 22:52 METAR KCQX 190252Z AUTO 22010G25KT 2 1/2SM -RA BR OVC002 19/18 A2979 RMK AO2
                 RAB22 SLP088 P0001 60001 T01890183 58005 TSNO =
2018-06-18 22:49 METAR KCQX 190249Z AUTO 22011G25KT 2 1/2SM -RA BR OVC002 19/18 A2979 RMK AO2
                 RAB22 P0001 TSNO =
2018-06-18 22:08 METAR KCQX 190208Z AUTO 23012G20KT 1 3/4SM BR OVC002 19/18 A2981 RMK AO2
                 T01890178 TSNO =
2018-06-18 21:52 METAR KCQX 190152Z AUTO 22010G19KT 3SM BR OVC002 18/18 A2981 RMK AO2 SLP094
                 T01830178 TSNO =
2018-06-18 21:49 METAR KCQX 190149Z AUTO 22009G18KT 2 1/2SM BR OVC002 18/18 A2980 RMK AO2 TSNO =
2018-06-18 20:52 METAR KCQX 190052Z AUTO 22008G21KT 6SM BR OVC003 19/18 A2979 RMK AO2 SLP089
                 T01890178 TSNO =
2018-06-18 19:52 METAR KCQX 182352Z AUTO 22011G17KT 7SM OVC003 19/18 A2983 RMK AO2 SLP102
                 T01890178 10217 20189 56016 TSNO =
2018-06-18 18:52 METAR KCQX 182252Z AUTO 23008G19KT 10SM OVC004 19/18 A2983 RMK AO2 SLP102
                 T01940178 TSNO =
2018-06-18 18:24 METAR KCQX 182224Z AUTO 23008G19KT 10SM OVC004 20/18 A2984 RMK AO2 T02000178
                 TSNO =
2018-06-18 17:52 METAR KCQX 182152Z AUTO 22009G18KT 10SM OVC005 20/18 A2984 RMK AO2 SLP106
                 T02000178 TSNO =
2018-06-18 16:52 METAR KCQX 182052Z AUTO 23011G22KT 10SM OVC005 21/18 A2988 RMK AO2 SLP118
                 T02060183 56025 TSNO =
2018-06-18 16:34 METAR KCQX 182034Z AUTO 22010G24KT 10SM OVC005 21/18 A2987 RMK AO2 T02060183
                 TSNO =
2018-06-18 16:07 METAR KCQX 182007Z AUTO 23012G21KT 10SM OVC004 20/18 A2989 RMK AO2 T02000178
                 TSNO =
2018-06-18 15:52 METAR KCQX 181952Z AUTO 23013G18KT 10SM OVC005 20/18 A2990 RMK AO2 SLP125
                 T02000178 TSNO =
2018-06-18 15:43 METAR KCQX 181943Z AUTO 22007G20KT 10SM OVC005 20/18 A2990 RMK AO2 T02000178
                 TSNO =
2018-06-18 15:09 METAR KCQX 181909Z AUTO 23013G21KT 10SM BKN007 21/18 A2992 RMK AO2 T02060178
                 TSNO =
2018-06-18 15:00 METAR KCQX 181900Z AUTO 23008G22KT 190V260 10SM SCT007 21/18 A2992 RMK AO2
                 T02110178 TSNO =
2018-06-18 14:52 METAR KCQX 181852Z AUTO 23012G22KT 10SM CLR 21/18 A2992 RMK AO2 SLP132 T02110178
                 TSNO =
2018-06-18 13:52 METAR KCQX 181752Z AUTO 22010G22KT 10SM CLR 21/17 A2995 RMK AO2 SLP143 T02110172
                 10228 20189 58015 TSNO =
2018-06-18 12:52 METAR KCQX 181652Z AUTO 23011G20KT 10SM CLR 22/17 A2997 RMK AO2 SLP150 T02170172
                 TSNO =
2018-06-18 11:52 METAR KCQX 181552Z AUTO 23012G23KT 10SM CLR 23/17 A2998 RMK AO2 SLP153 T02280172
                 TSNO =
2018-06-18 10:52 METAR KCQX 181452Z AUTO 22007G17KT 10SM CLR 22/17 A2999 RMK AO2 SLP158 T02220167
                 56013 TSNO =
2018-06-18 09:52 METAR KCQX 181352Z AUTO 22012G20KT 10SM CLR 21/17 A3001 RMK AO2 SLP162 T02110167
                 TSNO =
2018-06-18 08:52 METAR KCQX 181252Z AUTO 22010G17KT 10SM CLR 20/17 A3002 RMK AO2 SLP166 T02000167
                 TSNO =
2018-06-18 07:52 METAR KCQX 181152Z AUTO 22008G16KT 190V250 10SM CLR 19/17 A3003 RMK AO2 SLP171
                 T01940172 10194 20172 58007 TSNO =
2018-06-18 06:52 METAR KCQX 181052Z AUTO 23007KT 10SM CLR 19/17 A3005 RMK AO2 SLP176 T01890172
                 TSNO =
2018-06-18 05:52 METAR KCQX 180952Z AUTO 22006KT 10SM CLR 18/17 A3006 RMK AO2 SLP178 T01780167
                 TSNO =
2018-06-18 04:52 METAR KCQX 180852Z AUTO 22006KT 10SM CLR 17/16 A3005 RMK AO2 SLP178 T01720161
                 58005 TSNO =
2018-06-18 03:52 METAR KCQX 180752Z AUTO 23006KT 10SM CLR 17/16 A3006 RMK AO2 SLP181 T01720161
                 TSNO =
2018-06-18 02:52 METAR KCQX 180652Z AUTO 23004KT 10SM CLR 17/16 A3007 RMK AO2 SLP182 T01720161
                 TSNO =
2018-06-18 01:52 METAR KCQX 180552Z AUTO VRB05KT 10SM CLR 17/16 A3007 RMK AO2 SLP183 T01720161
                 10194 20172 56009 TSNO =

Support USWX by starting your Amazon purchase here.